createdAt,value
2023-05-11T00:02:30.116Z,12.90
2023-05-11T00:06:12.033Z,12.90
2023-05-11T00:09:53.847Z,12.90
2023-05-11T00:13:35.745Z,12.90
2023-05-11T00:17:20.774Z,13.00
2023-05-11T00:21:02.754Z,13.00
2023-05-11T00:24:44.742Z,13.00
2023-05-11T00:28:26.597Z,13.00
2023-05-11T00:32:08.450Z,13.00
2023-05-11T00:35:51.100Z,13.00
2023-05-11T00:39:38.644Z,13.00
2023-05-11T00:43:20.544Z,12.90
2023-05-11T00:47:03.088Z,12.90
2023-05-11T00:50:45.291Z,12.80
2023-05-11T00:54:27.574Z,12.80
2023-05-11T00:58:09.446Z,12.70
2023-05-11T01:01:51.496Z,12.70
2023-05-11T01:05:47.137Z,12.60
2023-05-11T01:09:59.637Z,12.70
2023-05-11T01:13:48.275Z,12.70
2023-05-11T01:17:44.227Z,12.70
2023-05-11T01:21:33.324Z,12.70
2023-05-11T01:25:49.118Z,12.60
2023-05-11T01:29:44.941Z,12.50
2023-05-11T01:33:32.836Z,12.50
2023-05-11T01:37:19.428Z,12.50
2023-05-11T01:41:06.711Z,12.50
2023-05-11T01:44:52.965Z,12.50
2023-05-11T01:48:40.894Z,12.50
2023-05-11T01:52:25.983Z,12.50
2023-05-11T01:56:09.272Z,12.60
2023-05-11T01:59:52.391Z,12.60
2023-05-11T02:03:36.977Z,12.60
2023-05-11T02:07:20.312Z,12.60
2023-05-11T02:11:04.260Z,12.60
2023-05-11T02:14:47.469Z,12.50
2023-05-11T02:18:30.762Z,12.60
2023-05-11T02:22:13.508Z,12.60
2023-05-11T02:25:56.726Z,12.50
2023-05-11T02:29:38.622Z,12.60
2023-05-11T02:33:31.045Z,12.60
2023-05-11T02:37:21.173Z,12.60
2023-05-11T02:41:07.333Z,12.60
2023-05-11T02:45:05.284Z,12.60
2023-05-11T02:48:55.267Z,12.60
2023-05-11T02:52:43.075Z,12.60
2023-05-11T02:56:25.980Z,12.60
2023-05-11T03:00:08.565Z,12.60
2023-05-11T03:03:51.315Z,12.50
2023-05-11T03:07:34.090Z,12.60
2023-05-11T03:11:18.105Z,12.50
2023-05-11T03:15:00.951Z,12.60
2023-05-11T03:18:44.441Z,12.60
2023-05-11T03:22:27.520Z,12.50
2023-05-11T03:26:11.815Z,12.50
2023-05-11T03:29:55.787Z,12.50
2023-05-11T03:33:37.809Z,12.50
2023-05-11T03:37:20.469Z,12.40
2023-05-11T03:41:02.619Z,12.40
2023-05-11T03:44:47.535Z,12.30
2023-05-11T03:48:29.766Z,12.30
2023-05-11T03:52:12.286Z,12.30
2023-05-11T03:55:54.859Z,12.30
2023-05-11T03:59:38.977Z,12.30
2023-05-11T04:03:21.143Z,12.20
2023-05-11T04:07:03.345Z,12.20
2023-05-11T04:10:45.195Z,12.20
2023-05-11T04:14:27.083Z,12.10
2023-05-11T04:18:09.037Z,12.20
2023-05-11T04:21:50.959Z,12.10
2023-05-11T04:25:32.782Z,12.10
2023-05-11T04:29:14.574Z,12.10
2023-05-11T04:32:56.498Z,12.10
2023-05-11T04:36:38.337Z,12.00
2023-05-11T04:40:20.530Z,12.00
2023-05-11T04:44:02.490Z,12.00
2023-05-11T04:47:44.369Z,12.00
2023-05-11T04:51:26.209Z,12.00
2023-05-11T04:55:08.327Z,12.00
2023-05-11T04:58:50.262Z,12.00
2023-05-11T05:02:32.081Z,12.00
2023-05-11T05:06:13.876Z,12.00
2023-05-11T05:09:58.835Z,12.00
2023-05-11T05:13:41.147Z,12.00
2023-05-11T05:17:23.039Z,12.00
2023-05-11T05:21:05.024Z,12.00
2023-05-11T05:24:46.883Z,12.10
2023-05-11T05:28:28.734Z,12.00
2023-05-11T05:32:10.612Z,12.10
2023-05-11T05:35:52.389Z,12.10
2023-05-11T05:39:34.257Z,12.10
2023-05-11T05:43:16.084Z,12.20
2023-05-11T05:46:57.930Z,12.10
2023-05-11T05:50:39.755Z,12.20
2023-05-11T05:54:21.618Z,12.20
2023-05-11T05:58:03.451Z,12.30
2023-05-11T06:01:48.420Z,12.20
2023-05-11T06:05:30.267Z,12.20
2023-05-11T06:09:12.447Z,12.30
2023-05-11T06:12:54.262Z,12.30
2023-05-11T06:16:36.128Z,12.30
2023-05-11T06:20:18.514Z,12.30
2023-05-11T06:24:00.495Z,12.40
2023-05-11T06:27:42.492Z,12.50
2023-05-11T06:31:24.496Z,12.60
2023-05-11T06:35:06.837Z,12.70
2023-05-11T06:38:48.846Z,12.70
2023-05-11T06:42:30.646Z,12.90
2023-05-11T06:46:16.397Z,13.10
2023-05-11T06:49:58.262Z,13.40
2023-05-11T06:53:40.157Z,13.70
2023-05-11T06:57:21.963Z,14.00
2023-05-11T07:01:05.810Z,14.10
2023-05-11T07:04:47.698Z,14.30
2023-05-11T07:08:29.632Z,14.30
2023-05-11T07:12:11.462Z,14.30
2023-05-11T07:15:55.252Z,14.40
2023-05-11T07:19:38.582Z,14.60
2023-05-11T07:23:20.637Z,14.90
2023-05-11T07:27:02.536Z,15.20
2023-05-11T07:30:44.530Z,15.40
2023-05-11T07:34:26.317Z,15.70
2023-05-11T07:38:09.717Z,15.90
2023-05-11T07:41:51.535Z,16.00
2023-05-11T07:45:33.424Z,16.30
2023-05-11T07:49:18.939Z,16.50
2023-05-11T07:53:07.372Z,16.60
2023-05-11T07:56:50.189Z,16.70
2023-05-11T08:00:32.069Z,16.80
2023-05-11T08:04:13.935Z,16.80
2023-05-11T08:07:55.801Z,16.80
2023-05-11T08:11:37.609Z,16.80
2023-05-11T08:15:20.260Z,16.80
2023-05-11T08:19:02.336Z,16.80
2023-05-11T08:22:44.837Z,16.80
2023-05-11T08:26:26.647Z,16.80
2023-05-11T08:30:11.761Z,16.90
2023-05-11T08:33:53.902Z,16.90
2023-05-11T08:37:36.131Z,17.10
2023-05-11T08:41:17.923Z,17.10
2023-05-11T08:45:01.304Z,17.20
2023-05-11T08:48:44.650Z,17.20
2023-05-11T08:52:28.061Z,17.30
2023-05-11T08:56:10.688Z,17.40
2023-05-11T08:59:53.423Z,17.40
2023-05-11T09:03:37.074Z,17.50
2023-05-11T09:07:19.773Z,17.60
2023-05-11T09:11:01.656Z,17.60
2023-05-11T09:14:43.821Z,17.60
2023-05-11T09:18:26.374Z,17.50
2023-05-11T09:22:08.293Z,17.40
2023-05-11T09:25:50.352Z,17.30
2023-05-11T09:29:32.241Z,17.20
2023-05-11T09:33:23.632Z,17.30
2023-05-11T09:37:19.365Z,17.40
2023-05-11T09:41:03.266Z,17.50
2023-05-11T09:44:46.617Z,18.00
2023-05-11T09:48:31.758Z,18.50
2023-05-11T09:52:15.751Z,18.80
2023-05-11T09:55:57.746Z,19.60
2023-05-11T09:59:41.430Z,20.70
2023-05-11T10:03:25.675Z,21.90
2023-05-11T10:07:07.748Z,23.10
2023-05-11T10:10:49.889Z,24.30
2023-05-11T10:14:33.621Z,25.40
2023-05-11T10:18:16.497Z,26.40
2023-05-11T10:22:01.245Z,27.20
2023-05-11T10:25:43.555Z,27.70
2023-05-11T10:29:25.974Z,28.30
2023-05-11T10:33:09.669Z,28.80
2023-05-11T10:36:53.325Z,29.30
2023-05-11T10:40:40.882Z,29.90
2023-05-11T10:44:46.983Z,30.30
2023-05-11T10:48:47.022Z,30.40
2023-05-11T10:52:53.139Z,29.80
2023-05-11T10:57:05.039Z,28.80
2023-05-11T11:01:31.083Z,28.30
2023-05-11T11:05:17.783Z,28.70
2023-05-11T11:09:02.098Z,29.40
2023-05-11T11:13:02.831Z,30.00
2023-05-11T11:17:15.935Z,30.60
2023-05-11T11:20:59.172Z,31.30
2023-05-11T11:24:45.740Z,32.00
2023-05-11T11:28:28.280Z,32.10
2023-05-11T11:32:23.150Z,31.60
2023-05-11T11:36:05.022Z,31.00
2023-05-11T11:39:50.320Z,31.50
2023-05-11T11:43:47.274Z,32.00
2023-05-11T11:47:29.376Z,32.10
2023-05-11T11:51:13.331Z,32.50
2023-05-11T11:55:04.158Z,32.90
2023-05-11T11:58:46.296Z,32.70
2023-05-11T12:02:28.757Z,33.20
2023-05-11T12:06:12.263Z,33.70
2023-05-11T12:09:54.292Z,33.80
2023-05-11T12:13:36.407Z,33.70
2023-05-11T12:17:28.268Z,33.70
2023-05-11T12:21:24.277Z,33.10
2023-05-11T12:25:07.810Z,32.20
2023-05-11T12:28:50.903Z,31.30
2023-05-11T12:32:32.787Z,30.40
2023-05-11T12:36:16.805Z,29.60
2023-05-11T12:39:59.478Z,28.90
2023-05-11T12:43:42.867Z,28.30
2023-05-11T12:47:25.341Z,28.00
2023-05-11T12:51:07.458Z,28.00
2023-05-11T12:55:00.257Z,28.20
2023-05-11T12:58:42.638Z,28.70
2023-05-11T13:02:24.560Z,28.90
2023-05-11T13:06:12.076Z,29.00
2023-05-11T13:09:58.553Z,29.30
2023-05-11T13:13:40.527Z,29.60
2023-05-11T13:17:36.654Z,29.50
2023-05-11T13:21:19.619Z,28.90
2023-05-11T13:25:02.460Z,28.40
2023-05-11T13:28:45.858Z,27.90
2023-05-11T13:32:32.377Z,27.40
2023-05-11T13:36:14.279Z,27.10
2023-05-11T13:39:56.195Z,26.70
2023-05-11T13:43:38.030Z,26.40
2023-05-11T13:47:20.413Z,26.00
2023-05-11T13:51:04.922Z,25.70
2023-05-11T13:54:46.741Z,25.60
2023-05-11T13:58:35.202Z,25.80
2023-05-11T14:02:17.212Z,25.90
2023-05-11T14:05:59.397Z,25.90
2023-05-11T14:09:43.724Z,26.10
2023-05-11T14:13:25.820Z,27.00
2023-05-11T14:17:08.050Z,28.10
2023-05-11T14:20:49.907Z,28.90
2023-05-11T14:24:31.796Z,29.10
2023-05-11T14:28:13.665Z,28.80
2023-05-11T14:31:55.633Z,28.40
2023-05-11T14:35:39.640Z,28.00
2023-05-11T14:39:21.755Z,27.60
2023-05-11T14:43:03.603Z,27.30
2023-05-11T14:46:45.542Z,26.80
2023-05-11T14:50:29.239Z,26.40
2023-05-11T14:54:11.041Z,26.10
2023-05-11T14:57:53.454Z,25.80
2023-05-11T15:01:35.612Z,25.50
2023-05-11T15:05:17.689Z,25.20
2023-05-11T15:08:59.785Z,25.10
2023-05-11T15:12:41.737Z,25.00
2023-05-11T15:16:23.597Z,25.00
2023-05-11T15:20:06.434Z,24.90
2023-05-11T15:23:49.373Z,24.50
2023-05-11T15:27:32.412Z,24.20
2023-05-11T15:31:14.311Z,24.10
2023-05-11T15:34:59.684Z,24.10
2023-05-11T15:38:43.013Z,24.00
2023-05-11T15:42:25.071Z,24.00
2023-05-11T15:46:07.236Z,24.00
2023-05-11T15:49:49.745Z,24.00
2023-05-11T15:53:31.841Z,23.80
2023-05-11T15:57:13.761Z,23.70
2023-05-11T16:00:58.546Z,23.40
2023-05-11T16:04:40.589Z,23.40
2023-05-11T16:08:22.396Z,23.40
2023-05-11T16:12:04.621Z,23.50
2023-05-11T16:15:46.505Z,23.60
2023-05-11T16:19:28.519Z,23.60
2023-05-11T16:23:10.295Z,23.50
2023-05-11T16:26:52.360Z,23.60
2023-05-11T16:30:34.479Z,23.70
2023-05-11T16:34:16.355Z,23.90
2023-05-11T16:37:59.789Z,24.00
2023-05-11T16:41:41.626Z,24.10
2023-05-11T16:45:23.654Z,24.20
2023-05-11T16:49:05.668Z,24.20
2023-05-11T16:52:48.739Z,24.20
2023-05-11T16:56:30.892Z,24.10
2023-05-11T17:00:13.652Z,23.90
2023-05-11T17:03:55.631Z,23.50
2023-05-11T17:07:37.842Z,23.30
2023-05-11T17:11:20.632Z,23.30
2023-05-11T17:15:03.080Z,23.20
2023-05-11T17:18:45.264Z,23.20
2023-05-11T17:22:28.450Z,23.20
2023-05-11T17:26:11.367Z,23.10
2023-05-11T17:29:53.153Z,23.10
2023-05-11T17:33:35.110Z,23.10
2023-05-11T17:37:30.611Z,23.00
2023-05-11T17:41:14.348Z,22.90
2023-05-11T17:44:56.809Z,22.90
2023-05-11T17:48:39.244Z,22.90
2023-05-11T17:52:21.432Z,22.70
2023-05-11T17:56:03.980Z,22.60
2023-05-11T17:59:47.678Z,22.60
2023-05-11T18:03:30.102Z,22.60
2023-05-11T18:07:12.389Z,22.50
2023-05-11T18:10:54.692Z,22.40
2023-05-11T18:14:36.624Z,22.10
2023-05-11T18:18:18.534Z,21.90
2023-05-11T18:22:00.714Z,21.80
2023-05-11T18:25:42.754Z,21.70
2023-05-11T18:29:25.883Z,21.60
2023-05-11T18:33:07.836Z,21.60
2023-05-11T18:36:49.760Z,21.60
2023-05-11T18:40:31.612Z,21.60
2023-05-11T18:44:15.126Z,21.50
2023-05-11T18:47:57.351Z,21.40
2023-05-11T18:51:39.279Z,21.30
2023-05-11T18:55:21.283Z,21.20
2023-05-11T18:59:03.082Z,20.90
2023-05-11T19:02:48.104Z,20.70
2023-05-11T19:06:30.360Z,20.60
2023-05-11T19:10:12.599Z,20.40
2023-05-11T19:13:54.364Z,20.20
2023-05-11T19:17:36.394Z,20.10
2023-05-11T19:21:18.275Z,20.10
2023-05-11T19:25:00.873Z,20.00
2023-05-11T19:28:42.716Z,19.90
2023-05-11T19:32:24.859Z,19.80
2023-05-11T19:36:07.354Z,19.70
2023-05-11T19:39:49.438Z,19.50
2023-05-11T19:43:31.400Z,19.40
2023-05-11T19:47:14.061Z,19.30
2023-05-11T19:50:59.085Z,19.20
2023-05-11T19:54:51.725Z,19.00
2023-05-11T19:58:33.991Z,18.90
2023-05-11T20:02:16.492Z,18.80
2023-05-11T20:05:58.728Z,18.70
2023-05-11T20:09:40.747Z,18.60
2023-05-11T20:13:22.875Z,18.50
2023-05-11T20:17:07.310Z,18.40
2023-05-11T20:20:49.732Z,18.40
2023-05-11T20:24:31.655Z,18.30
2023-05-11T20:28:13.573Z,18.20
2023-05-11T20:31:55.484Z,18.10
2023-05-11T20:35:37.473Z,17.90
2023-05-11T20:39:20.798Z,17.80
2023-05-11T20:43:04.126Z,17.70
2023-05-11T20:46:50.448Z,17.60
2023-05-11T20:50:33.072Z,17.50
2023-05-11T20:54:14.976Z,17.30
2023-05-11T20:57:57.649Z,17.20
2023-05-11T21:01:40.230Z,17.10
2023-05-11T21:05:24.814Z,17.00
2023-05-11T21:09:07.800Z,16.90
2023-05-11T21:12:53.170Z,16.90
2023-05-11T21:16:35.051Z,16.80
2023-05-11T21:20:17.307Z,16.70
2023-05-11T21:23:59.340Z,16.60
2023-05-11T21:27:41.822Z,16.50
2023-05-11T21:31:23.864Z,16.40
2023-05-11T21:35:06.169Z,16.30
2023-05-11T21:38:47.998Z,16.30
2023-05-11T21:42:34.641Z,16.30
2023-05-11T21:46:16.633Z,16.20
2023-05-11T21:49:59.106Z,16.20
2023-05-11T21:53:40.933Z,16.20
2023-05-11T21:57:22.906Z,16.10
2023-05-11T22:01:04.796Z,16.20
2023-05-11T22:04:47.297Z,16.10
2023-05-11T22:08:29.172Z,16.20
2023-05-11T22:12:10.992Z,16.20
2023-05-11T22:15:52.895Z,16.10
2023-05-11T22:19:35.153Z,16.10
2023-05-11T22:23:17.360Z,16.10
2023-05-11T22:26:59.541Z,16.10
2023-05-11T22:30:41.368Z,16.00
2023-05-11T22:34:23.223Z,16.00
2023-05-11T22:38:04.991Z,15.90
2023-05-11T22:41:46.956Z,15.90
2023-05-11T22:45:28.786Z,15.80
2023-05-11T22:49:10.769Z,15.70
2023-05-11T22:52:52.732Z,15.70
2023-05-11T22:56:34.611Z,15.50
2023-05-11T23:00:16.840Z,15.40
2023-05-11T23:03:58.673Z,15.30
2023-05-11T23:07:40.456Z,15.20
2023-05-11T23:11:22.427Z,15.00
2023-05-11T23:15:04.901Z,14.90
2023-05-11T23:18:47.031Z,14.90
2023-05-11T23:22:29.356Z,14.70
2023-05-11T23:26:11.315Z,14.70
2023-05-11T23:29:53.129Z,14.60
2023-05-11T23:33:35.015Z,14.50
2023-05-11T23:37:16.936Z,14.50
2023-05-11T23:40:59.312Z,14.30
2023-05-11T23:44:41.100Z,14.30
2023-05-11T23:48:23.203Z,14.20
2023-05-11T23:52:05.246Z,14.10
2023-05-11T23:55:50.815Z,14.10
2023-05-11T23:59:32.600Z,14.00
